N339PR SRDR-SADF
Flight info
| Callsign | N339PR |
|---|---|
| Flight time | N/A |
| Altitude | 1500 |
| Route | DCT VANAR |
| Aircraft | PC12/L-SDFGRWY/LB1 |
Departure
| Time | N/A |
|---|---|
| Airport | SRDR |
Arrival
| Time | 2026-04-22 19:21 |
|---|---|
| Airport | San Fernando Airport (SADF) |
| Time | Latitude | Longitude | Altitude | Speed | Heading |
|---|---|---|---|---|---|
| 2026-04-22 18:52 | -34.68167 | -59.03404 | 98 ft | 0 kts | 69° |
| 2026-04-22 19:03 | -34.68167 | -59.03405 | 90 ft | 0 kts | 69° |
| 2026-04-22 19:03 | -34.68168 | -59.03409 | 90 ft | 1 kts | 56° |
| 2026-04-22 19:03 | -34.68169 | -59.03411 | 95 ft | 2 kts | 37° |
| 2026-04-22 19:04 | -34.68150 | -59.03425 | 95 ft | 7 kts | 307° |
| 2026-04-22 19:04 | -34.68097 | -59.03476 | 96 ft | 13 kts | 336° |
| 2026-04-22 19:04 | -34.67998 | -59.03524 | 96 ft | 16 kts | 337° |
| 2026-04-22 19:04 | -34.67938 | -59.03554 | 96 ft | 5 kts | 337° |
| 2026-04-22 19:05 | -34.67912 | -59.03568 | 96 ft | 4 kts | 335° |
| 2026-04-22 19:05 | -34.67880 | -59.03586 | 96 ft | 7 kts | 337° |
| 2026-04-22 19:05 | -34.67816 | -59.03617 | 95 ft | 9 kts | 340° |
| 2026-04-22 19:05 | -34.67741 | -59.03654 | 96 ft | 14 kts | 338° |
| 2026-04-22 19:06 | -34.67685 | -59.03675 | 96 ft | 12 kts | 333° |
| 2026-04-22 19:06 | -34.67640 | -59.03732 | 98 ft | 6 kts | 243° |
| 2026-04-22 19:06 | -34.67688 | -59.03743 | 98 ft | 20 kts | 159° |
| 2026-04-22 19:07 | -34.68408 | -59.03387 | 190 ft | 103 kts | 160° |
| 2026-04-22 19:07 | -34.69155 | -59.03045 | 437 ft | 128 kts | 164° |
| 2026-04-22 19:07 | -34.70089 | -59.02707 | 667 ft | 153 kts | 181° |
| 2026-04-22 19:07 | -34.71121 | -59.03153 | 864 ft | 164 kts | 224° |
| 2026-04-22 19:08 | -34.71531 | -59.04398 | 1067 ft | 169 kts | 272° |
| 2026-04-22 19:08 | -34.70992 | -59.05683 | 1264 ft | 180 kts | 314° |
| 2026-04-22 19:08 | -34.69983 | -59.06621 | 1442 ft | 186 kts | 330° |
| 2026-04-22 19:08 | -34.68671 | -59.06841 | 1520 ft | 194 kts | 13° |
| 2026-04-22 19:09 | -34.67464 | -59.06063 | 1509 ft | 202 kts | 32° |
| 2026-04-22 19:09 | -34.66174 | -59.05319 | 1504 ft | 202 kts | 18° |
| 2026-04-22 19:09 | -34.64826 | -59.04795 | 1501 ft | 204 kts | 17° |
| 2026-04-22 19:09 | -34.63497 | -59.04237 | 1516 ft | 205 kts | 18° |
| 2026-04-22 19:10 | -34.62119 | -59.03636 | 1499 ft | 206 kts | 18° |
| 2026-04-22 19:10 | -34.60783 | -59.03056 | 1499 ft | 206 kts | 17° |
| 2026-04-22 19:10 | -34.59441 | -59.02486 | 1518 ft | 206 kts | 17° |
| 2026-04-22 19:10 | -34.58067 | -59.01900 | 1504 ft | 204 kts | 18° |
| 2026-04-22 19:11 | -34.56730 | -59.01331 | 1502 ft | 203 kts | 17° |
| 2026-04-22 19:11 | -34.55400 | -59.00757 | 1507 ft | 203 kts | 18° |
| 2026-04-22 19:11 | -34.54066 | -59.00182 | 1489 ft | 204 kts | 17° |
| 2026-04-22 19:11 | -34.52737 | -58.99619 | 1498 ft | 201 kts | 18° |
| 2026-04-22 19:12 | -34.51418 | -58.99058 | 1514 ft | 202 kts | 17° |
| 2026-04-22 19:12 | -34.50077 | -58.98490 | 1513 ft | 204 kts | 18° |
| 2026-04-22 19:12 | -34.48739 | -58.97910 | 1509 ft | 206 kts | 18° |
| 2026-04-22 19:12 | -34.47395 | -58.97341 | 1506 ft | 203 kts | 17° |
| 2026-04-22 19:13 | -34.46077 | -58.96774 | 1498 ft | 202 kts | 18° |
| 2026-04-22 19:13 | -34.44741 | -58.96210 | 1497 ft | 200 kts | 17° |
| 2026-04-22 19:13 | -34.43406 | -58.95642 | 1507 ft | 199 kts | 18° |
| 2026-04-22 19:13 | -34.42118 | -58.95037 | 1499 ft | 199 kts | 27° |
| 2026-04-22 19:14 | -34.41077 | -58.93936 | 1506 ft | 201 kts | 52° |
| 2026-04-22 19:14 | -34.40444 | -58.92427 | 1503 ft | 202 kts | 74° |
| 2026-04-22 19:14 | -34.40108 | -58.90782 | 1508 ft | 202 kts | 77° |
| 2026-04-22 19:14 | -34.39750 | -58.89139 | 1499 ft | 201 kts | 75° |
| 2026-04-22 19:15 | -34.39502 | -58.88036 | 1505 ft | 201 kts | 76° |
| 2026-04-22 19:15 | -34.39122 | -58.86307 | 1510 ft | 201 kts | 77° |
| 2026-04-22 19:15 | -34.38774 | -58.84668 | 1508 ft | 202 kts | 76° |
| 2026-04-22 19:15 | -34.38535 | -58.82996 | 1502 ft | 200 kts | 93° |
| 2026-04-22 19:16 | -34.38780 | -58.81368 | 1497 ft | 200 kts | 105° |
| 2026-04-22 19:16 | -34.39089 | -58.79689 | 1511 ft | 203 kts | 103° |
| 2026-04-22 19:16 | -34.39398 | -58.78023 | 1500 ft | 202 kts | 104° |
| 2026-04-22 19:16 | -34.39576 | -58.76334 | 1494 ft | 205 kts | 86° |
| 2026-04-22 19:17 | -34.39477 | -58.74632 | 1496 ft | 202 kts | 101° |
| 2026-04-22 19:17 | -34.39803 | -58.73606 | 1504 ft | 199 kts | 123° |
| 2026-04-22 19:17 | -34.40651 | -58.71565 | 1503 ft | 198 kts | 114° |
| 2026-04-22 19:17 | -34.41214 | -58.69984 | 1500 ft | 196 kts | 117° |
| 2026-04-22 19:18 | -34.41612 | -58.68976 | 1500 ft | 193 kts | 118° |
| 2026-04-22 19:18 | -34.42183 | -58.67545 | 1499 ft | 191 kts | 116° |
| 2026-04-22 19:18 | -34.42805 | -58.65980 | 1502 ft | 191 kts | 117° |
| 2026-04-22 19:18 | -34.43226 | -58.64528 | 1454 ft | 186 kts | 99° |
| 2026-04-22 19:19 | -34.43154 | -58.63012 | 1280 ft | 177 kts | 77° |
| 2026-04-22 19:19 | -34.42777 | -58.61624 | 1159 ft | 158 kts | 68° |
| 2026-04-22 19:19 | -34.42324 | -58.60381 | 996 ft | 146 kts | 65° |
| 2026-04-22 19:19 | -34.42080 | -58.59166 | 944 ft | 115 kts | 73° |
| 2026-04-22 19:20 | -34.41876 | -58.58292 | 887 ft | 106 kts | 86° |
| 2026-04-22 19:20 | -34.42096 | -58.57505 | 874 ft | 103 kts | 135° |
| 2026-04-22 19:20 | -34.42664 | -58.56945 | 796 ft | 110 kts | 147° |
| 2026-04-22 19:20 | -34.43379 | -58.56714 | 671 ft | 107 kts | 196° |
| 2026-04-22 19:21 | -34.43969 | -58.57320 | 413 ft | 107 kts | 231° |
| 2026-04-22 19:21 | -34.44513 | -58.57963 | 178 ft | 105 kts | 225° |
| 2026-04-22 19:21 | -34.44989 | -58.58539 | 29 ft | 86 kts | 226° |
| 2026-04-22 19:21 | -34.45313 | -58.58922 | 22 ft | 39 kts | 225° |
| 2026-04-22 19:22 | -34.45421 | -58.59050 | 22 ft | 27 kts | 224° |
| 2026-04-22 19:22 | -34.45554 | -58.59201 | 23 ft | 26 kts | 225° |
| 2026-04-22 19:22 | -34.45658 | -58.59312 | 22 ft | 16 kts | 183° |
| 2026-04-22 19:22 | -34.45761 | -58.59250 | 24 ft | 22 kts | 150° |
| 2026-04-22 19:23 | -34.45837 | -58.59155 | 22 ft | 13 kts | 59° |
| 2026-04-22 19:23 | -34.45787 | -58.59036 | 22 ft | 16 kts | 61° |
| 2026-04-22 19:23 | -34.45736 | -58.58918 | 22 ft | 15 kts | 63° |
| 2026-04-22 19:23 | -34.45689 | -58.58811 | 22 ft | 14 kts | 61° |
| 2026-04-22 19:24 | -34.45644 | -58.58707 | 22 ft | 14 kts | 64° |
| 2026-04-22 19:24 | -34.45599 | -58.58601 | 22 ft | 14 kts | 63° |
| 2026-04-22 19:24 | -34.45550 | -58.58486 | 22 ft | 14 kts | 60° |
| 2026-04-22 19:24 | -34.45510 | -58.58391 | 22 ft | 13 kts | 62° |
| 2026-04-22 19:25 | -34.45468 | -58.58294 | 22 ft | 13 kts | 61° |
| 2026-04-22 19:25 | -34.45425 | -58.58195 | 22 ft | 13 kts | 62° |
| 2026-04-22 19:25 | -34.45381 | -58.58093 | 22 ft | 14 kts | 63° |
| 2026-04-22 19:25 | -34.45335 | -58.57991 | 22 ft | 13 kts | 41° |
| 2026-04-22 19:26 | -34.45258 | -58.58020 | 22 ft | 11 kts | 333° |
| 2026-04-22 19:26 | -34.45197 | -58.58066 | 22 ft | 9 kts | 328° |
| 2026-04-22 19:26 | -34.45141 | -58.58105 | 22 ft | 8 kts | 330° |
| 2026-04-22 19:26 | -34.45102 | -58.58117 | 22 ft | 6 kts | 37° |
| 2026-04-22 19:27 | -34.45088 | -58.58085 | 22 ft | 1 kts | 60° |
| 2026-04-22 19:27 | -34.45084 | -58.58078 | 22 ft | 2 kts | 62° |
| 2026-04-22 19:27 | -34.45084 | -58.58076 | 22 ft | 0 kts | 61° |